Time;durP1;ratioP1;P1;durP2;ratioP2;P2;SDS_P1;SDS_P2;PMS_P1;PMS_P2;Temp;Humidity;BMP_temperature;BMP_pressure;BME280_temperature;BME280_humidity;BME280_pressure;Samples;Min_cycle;Max_cycle;Signal;HPM_P1;HPM_P2
2022/04/01 00:00:43;;;;;;;3.03;2.50;;;;;;;7.04;61.36;100586.59;5030498;28;20116;-70
2022/04/01 00:03:09;;;;;;;5.00;2.70;;;;;;;7.36;59.38;100583.13;5030175;28;20037;-70
2022/04/01 00:05:36;;;;;;;4.13;2.97;;;;;;;8.17;56.11;100575.97;5031214;28;20480;-70
2022/04/01 00:08:02;;;;;;;3.40;2.60;;;;;;;7.94;56.40;100583.00;5029774;28;20041;-71
2022/04/01 00:10:27;;;;;;;5.60;3.23;;;;;;;7.60;58.01;100593.50;5031976;28;20120;-71
2022/04/01 00:12:53;;;;;;;7.07;2.97;;;;;;;8.47;54.39;100580.22;5030393;28;20116;-70
2022/04/01 00:15:18;;;;;;;4.10;2.70;;;;;;;7.84;55.60;100585.63;5029508;28;20036;-71
2022/04/01 00:17:44;;;;;;;3.30;2.63;;;;;;;7.60;59.06;100593.50;5031662;28;20495;-71
2022/04/01 00:20:19;;;;;;;3.27;2.23;;;;;;;8.17;54.56;100589.84;5030052;28;20037;-71
2022/04/01 00:22:46;;;;;;;2.30;2.00;;;;;;;7.35;57.37;100586.56;5028858;28;20049;-71
2022/04/01 00:25:11;;;;;;;4.00;2.77;;;;;;;7.59;55.81;100596.94;5030118;28;20310;-70
2022/04/01 00:27:37;;;;;;;2.83;2.20;;;;;;;7.27;59.70;100605.66;5030255;28;20043;-71
2022/04/01 00:30:07;;;;;;;3.73;2.60;;;;;;;7.18;60.18;100599.59;5029789;28;20021;-71
2022/04/01 00:32:33;;;;;;;4.40;2.83;;;;;;;7.00;59.71;100597.84;5030048;28;20125;-70
2022/04/01 00:34:58;;;;;;;3.00;2.17;;;;;;;7.14;60.07;100611.72;5030759;28;20116;-71
2022/04/01 00:37:23;;;;;;;3.00;2.00;;;;;;;6.67;61.47;100602.97;5019452;28;20369;-70
2022/04/01 00:39:49;;;;;;;4.73;2.90;;;;;;;7.71;58.06;100621.25;5031722;28;20465;-70
2022/04/01 00:42:14;;;;;;;2.43;2.00;;;;;;;7.39;57.70;100616.91;5028591;28;20124;-71
2022/04/01 00:44:41;;;;;;;2.57;2.30;;;;;;;7.00;59.86;100603.06;5030075;28;20030;-70
2022/04/01 00:47:09;;;;;;;4.50;3.07;;;;;;;7.42;57.12;100619.53;5029618;28;20033;-71
2022/04/01 00:49:35;;;;;;;3.93;2.80;;;;;;;7.82;55.99;100620.34;5029407;28;20057;-70
2022/04/01 00:52:03;;;;;;;4.10;2.70;;;;;;;7.24;61.59;100621.25;5029571;28;20468;-70
2022/04/01 00:54:29;;;;;;;3.57;2.37;;;;;;;7.34;58.83;100626.47;5029623;28;20030;-70
2022/04/01 00:56:55;;;;;;;3.07;2.13;;;;;;;7.50;57.28;100628.19;5028900;28;20467;-69
2022/04/01 00:59:21;;;;;;;3.80;2.67;;;;;;;7.50;57.28;100628.19;5012431;28;20040;-70
2022/04/01 01:01:49;;;;;;;3.70;2.43;;;;;;;7.63;56.97;100632.50;5018323;28;20033;-71
2022/04/01 01:04:16;;;;;;;4.07;2.60;;;;;;;7.84;55.56;100628.13;5029965;28;20389;-69
2022/04/01 01:06:52;;;;;;;3.33;2.47;;;;;;;7.62;58.04;100633.41;5030186;28;20037;-69
2022/04/01 01:09:19;;;;;;;3.43;2.10;;;;;;;6.68;60.44;100635.03;5030727;28;20027;-70
2022/04/01 01:11:47;;;;;;;5.30;2.43;;;;;;;7.53;56.73;100638.59;5012255;28;20075;-69
2022/04/01 01:14:13;;;;;;;5.63;2.57;;;;;;;8.06;55.99;100625.47;5028334;28;20039;-69
2022/04/01 01:16:44;;;;;;;3.07;2.30;;;;;;;7.50;58.13;100628.19;5030752;28;20049;-69
2022/04/01 01:19:16;;;;;;;6.13;2.60;;;;;;;7.36;58.55;100642.94;5027929;28;20056;-69
2022/04/01 01:21:43;;;;;;;3.40;2.38;;;;;;;7.32;59.47;100644.66;5028889;28;20409;-68
2022/04/01 01:24:11;;;;;;;2.40;2.20;;;;;;;6.66;77.97;100657.53;5027957;28;20100;-68
2022/04/01 01:26:37;;;;;;;5.00;2.90;;;;;;;7.86;61.00;100649.84;5029027;28;20397;-69
2022/04/01 01:29:06;;;;;;;4.53;2.93;;;;;;;7.84;57.97;100654.16;5030194;28;20025;-69
2022/04/01 01:31:33;;;;;;;4.27;2.77;;;;;;;7.53;59.01;100663.72;5028583;28;20060;-69
2022/04/01 01:33:58;;;;;;;4.00;2.67;;;;;;;7.36;59.37;100655.94;5028755;28;20108;-69
2022/04/01 01:36:26;;;;;;;4.53;3.00;;;;;;;8.05;58.38;100647.19;5029603;28;20172;-69
2022/04/01 01:38:52;;;;;;;3.97;2.70;;;;;;;7.07;62.35;100654.16;5029146;28;20033;-70
2022/04/01 01:41:17;;;;;;;3.80;2.73;;;;;;;7.66;57.06;100654.19;5028894;28;20021;-68
2022/04/01 01:43:43;;;;;;;3.93;2.60;;;;;;;7.09;60.58;100668.06;5028685;28;20020;-68
2022/04/01 01:46:09;;;;;;;4.57;2.60;;;;;;;8.29;57.48;100657.50;5027827;28;20026;-68
2022/04/01 01:48:34;;;;;;;3.30;2.63;;;;;;;8.07;44.66;100655.88;5029349;28;20342;-68
2022/04/01 01:56:28;;;;;;;4.80;3.07;;;;;;;7.25;58.11;100675.00;5030416;28;20071;-68
2022/04/01 01:58:54;;;;;;;4.13;2.87;;;;;;;7.69;57.85;100665.44;5030390;28;20025;-68
2022/04/01 02:01:20;;;;;;;3.77;2.37;;;;;;;7.57;54.27;100671.53;5027698;28;20097;-68
2022/04/01 02:03:46;;;;;;;5.27;3.83;;;;;;;7.49;56.92;100670.69;5029210;28;20100;-68
2022/04/01 02:06:11;;;;;;;5.67;2.93;;;;;;;8.26;52.88;100660.13;5027728;28;20112;-68
2022/04/01 02:08:37;;;;;;;5.43;3.10;;;;;;;7.97;53.94;100674.09;5028466;28;20108;-67
2022/04/01 02:11:02;;;;;;;3.70;3.07;;;;;;;8.01;54.04;100671.47;5028478;28;20079;-68
2022/04/01 02:13:29;;;;;;;5.17;3.00;;;;;;;8.40;55.53;100660.09;5027934;28;20503;-68
2022/04/01 02:15:55;;;;;;;4.03;3.13;;;;;;;8.13;54.37;100671.44;5028994;28;20025;-67
2022/04/01 02:18:23;;;;;;;5.77;2.97;;;;;;;7.87;55.41;100677.59;5029587;28;20040;-68
2022/04/01 02:20:48;;;;;;;6.27;3.37;;;;;;;8.51;51.95;100667.91;5018532;28;20030;-68
2022/04/01 02:23:14;;;;;;;2.90;2.30;;;;;;;7.51;55.21;100676.72;5026337;28;20053;-68
2022/04/01 02:25:42;;;;;;;6.63;4.03;;;;;;;8.64;53.92;100672.19;5029212;28;20029;-68
2022/04/01 02:28:08;;;;;;;5.07;3.10;;;;;;;8.35;55.14;100682.66;5027115;28;20053;-68
2022/04/01 02:30:34;;;;;;;3.80;3.17;;;;;;;8.07;55.38;100681.91;5028954;28;20021;-68
2022/04/01 02:33:00;;;;;;;4.13;2.73;;;;;;;8.40;100.00;100669.66;5027939;28;20083;-68
2022/04/01 02:35:26;;;;;;;5.07;2.90;;;;;;;7.25;59.46;100693.19;5027469;28;20033;-68
2022/04/01 02:37:51;;;;;;;3.60;2.93;;;;;;;8.08;55.72;100686.25;5029443;28;20112;-68
2022/04/01 02:40:17;;;;;;;4.13;3.23;;;;;;;7.98;54.53;100686.25;5031872;28;20025;-68
2022/04/01 02:42:42;;;;;;;3.73;1.83;;;;;;;7.87;54.44;100688.00;5024010;28;20034;-68
2022/04/01 02:45:08;;;;;;;3.27;2.47;;;;;;;7.17;59.66;100697.53;5013873;28;20032;-68
2022/04/01 02:47:33;;;;;;;5.83;2.83;;;;;;;8.02;57.11;100694.03;5022443;28;20108;-68
2022/04/01 02:50:00;;;;;;;4.17;2.87;;;;;;;8.24;54.59;100700.06;5030901;28;20029;-68
2022/04/01 02:52:26;;;;;;;6.93;2.83;;;;;;;8.86;52.80;100690.34;5031608;28;20048;-68
2022/04/01 02:54:52;;;;;;;4.37;2.73;;;;;;;8.36;53.79;100704.38;5031753;28;20052;-68
2022/04/01 02:57:18;;;;;;;3.63;2.80;;;;;;;7.48;56.57;100715.75;5030226;28;20029;-68
2022/04/01 02:59:44;;;;;;;6.00;3.00;;;;;;;8.35;54.51;100719.13;5032019;28;20029;-68
2022/04/01 03:02:10;;;;;;;4.47;3.27;;;;;;;8.64;52.21;100711.28;5032514;28;20075;-68
2022/04/01 03:04:35;;;;;;;3.40;2.53;;;;;;;7.93;53.41;100727.03;5030459;28;20037;-68
2022/04/01 03:07:02;;;;;;;4.27;2.80;;;;;;;7.60;57.36;100725.31;5031616;28;20440;-68
2022/04/01 03:09:27;;;;;;;6.30;2.83;;;;;;;7.90;54.90;100733.97;5031576;28;20064;-68
2022/04/01 03:11:54;;;;;;;5.43;2.97;;;;;;;8.32;55.29;100727.84;5010677;28;20030;-68
2022/04/01 03:14:20;;;;;;;4.73;3.20;;;;;;;7.65;55.74;100728.75;5032418;28;20105;-68
2022/04/01 03:16:45;;;;;;;4.13;2.47;;;;;;;8.04;54.50;100724.41;5031269;28;20046;-68
2022/04/01 03:19:10;;;;;;;4.17;3.13;;;;;;;8.42;53.39;100726.09;5030951;28;20512;-68
2022/04/01 03:21:39;;;;;;;6.03;3.17;;;;;;;8.30;51.85;100736.53;5011988;28;20144;-68
2022/04/01 03:24:05;;;;;;;4.43;2.33;;;;;;;8.37;52.89;100742.59;5046052;28;20034;-68
2022/04/01 03:26:31;;;;;;;5.40;3.40;;;;;;;8.37;52.19;100742.59;5023611;28;20371;-68
2022/04/01 03:28:56;;;;;;;5.27;3.30;;;;;;;8.23;55.02;100740.00;5031216;28;20545;-68
2022/04/01 03:31:22;;;;;;;4.97;3.27;;;;;;;7.60;56.36;100749.56;5031656;28;20108;-68
2022/04/01 03:33:47;;;;;;;11.10;3.53;;;;;;;7.70;54.33;100744.38;5030900;28;20029;-68
2022/04/01 03:36:13;;;;;;;4.47;3.17;;;;;;;8.42;52.96;100751.25;5028522;28;20492;-68
2022/04/01 03:38:39;;;;;;;10.37;4.33;;;;;;;8.41;53.27;100754.75;5030768;28;20129;-68
2022/04/01 03:41:05;;;;;;;7.17;3.87;;;;;;;8.85;51.32;100753.75;5030704;28;20135;-68
2022/04/01 03:43:34;;;;;;;7.93;3.43;;;;;;;8.03;51.79;100763.47;5030914;28;20032;-68
2022/04/01 03:46:09;;;;;;;6.03;2.80;;;;;;;7.37;58.01;100762.53;5030122;28;20033;-68
2022/04/01 03:48:45;;;;;;;5.57;3.23;;;;;;;7.73;56.32;100767.78;5031175;28;20033;-68
2022/04/01 03:51:19;;;;;;;9.77;3.40;;;;;;;7.78;57.71;100768.69;5029751;28;20025;-69
2022/04/01 03:54:05;;;;;;;4.70;3.20;;;;;;;8.06;54.88;100781.69;5030093;28;20033;-68
2022/04/01 03:56:36;;;;;;;4.10;2.57;;;;;;;7.59;55.32;100776.44;5030838;28;20025;-68
2022/04/01 03:59:09;;;;;;;4.70;3.33;;;;;;;7.54;56.78;100779.91;5030004;28;20037;-68
2022/04/01 04:01:36;;;;;;;5.47;3.07;;;;;;;7.80;54.64;100783.44;5030878;28;20421;-68
2022/04/01 04:04:03;;;;;;;4.47;3.23;;;;;;;8.05;54.32;100788.63;5030187;28;20063;-68
2022/04/01 04:06:28;;;;;;;5.53;2.93;;;;;;;7.12;57.09;100788.47;5029319;28;20548;-68
2022/04/01 04:08:56;;;;;;;6.73;3.53;;;;;;;8.24;53.84;100786.88;5031701;28;20104;-68
2022/04/01 04:11:28;;;;;;;4.93;3.03;;;;;;;7.43;55.22;100798.09;5031784;28;20026;-68
2022/04/01 04:13:55;;;;;;;6.00;2.53;;;;;;;7.32;56.80;100799.81;5029881;28;20396;-68
2022/04/01 04:16:24;;;;;;;5.27;3.10;;;;;;;7.88;55.98;100806.84;5029759;28;20142;-68
2022/04/01 04:19:00;;;;;;;4.23;2.70;;;;;;;8.16;55.96;100806.88;5032125;28;20535;-68
2022/04/01 04:21:29;;;;;;;7.10;3.47;;;;;;;8.24;52.68;100799.91;5029293;28;20057;-68
2022/04/01 04:23:58;;;;;;;5.87;3.10;;;;;;;8.58;51.72;100810.28;5030350;28;20104;-68
2022/04/01 04:26:45;;;;;;;9.20;3.27;;;;;;;8.61;52.43;100820.72;5031804;28;20021;-69
2022/04/01 04:29:12;;;;;;;7.77;3.10;;;;;;;9.18;51.06;100811.84;5009778;28;20045;-69
2022/04/01 04:32:03;;;;;;;4.87;2.07;;;;;;;7.18;56.49;100829.22;5030415;28;20038;-69
2022/04/01 04:34:44;;;;;;;5.40;3.33;;;;;;;9.07;50.62;100816.25;5015560;28;20041;-69
2022/04/01 04:37:11;;;;;;;4.17;2.60;;;;;;;8.39;50.92;100832.00;5030938;28;20033;-69
2022/04/01 04:39:38;;;;;;;3.83;2.40;;;;;;;7.48;55.71;100833.66;5030246;28;20056;-69
2022/04/01 04:42:10;;;;;;;3.97;2.80;;;;;;;8.77;51.41;100831.09;5030770;28;20096;-69
2022/04/01 04:44:36;;;;;;;7.77;3.43;;;;;;;7.64;53.54;100836.31;5023677;28;20030;-70
2022/04/01 04:47:05;;;;;;;7.30;3.23;;;;;;;8.18;51.79;100844.16;5028506;28;20433;-70
2022/04/01 04:49:31;;;;;;;6.17;3.83;;;;;;;8.25;53.45;100848.50;5029361;28;20040;-70
2022/04/01 04:51:58;;;;;;;5.43;3.13;;;;;;;8.04;53.76;100851.13;5029776;28;20033;-70
2022/04/01 04:54:25;;;;;;;6.20;3.10;;;;;;;8.58;52.78;100851.97;5030073;28;20072;-70
2022/04/01 04:56:53;;;;;;;6.80;3.60;;;;;;;9.09;49.39;100848.38;5030253;28;20025;-70
2022/04/01 04:59:22;;;;;;;7.20;3.33;;;;;;;9.25;50.85;100850.06;5028381;28;20061;-71
2022/04/01 05:02:06;;;;;;;5.27;3.13;;;;;;;7.93;54.85;100857.16;5029001;28;20466;-70
2022/04/01 05:04:47;;;;;;;4.80;3.13;;;;;;;8.86;51.99;100872.81;5029860;28;20040;-70
2022/04/01 05:07:32;;;;;;;4.90;2.70;;;;;;;8.60;52.64;100875.41;5029369;28;20033;-70
2022/04/01 05:10:16;;;;;;;3.93;2.73;;;;;;;8.55;52.18;100877.19;5029640;28;20113;-71
2022/04/01 05:13:03;;;;;;;7.37;2.67;;;;;;;8.23;51.73;100881.50;5029865;28;20201;-71
2022/04/01 05:15:31;;;;;;;4.77;3.00;;;;;;;8.78;50.59;100890.19;5028783;28;20474;-71
2022/04/01 05:18:14;;;;;;;4.63;2.87;;;;;;;8.28;52.23;100890.19;5028580;28;20037;-71
2022/04/01 05:20:52;;;;;;;5.27;2.93;;;;;;;8.46;53.38;100904.09;5010168;28;20121;-71
2022/04/01 05:23:39;;;;;;;4.67;2.57;;;;;;;7.87;54.53;100898.81;5027939;28;20069;-71
2022/04/01 05:26:20;;;;;;;7.97;3.43;;;;;;;8.21;53.62;100904.06;5028535;28;20489;-70
2022/04/01 05:28:50;;;;;;;4.50;2.70;;;;;;;8.15;53.81;100914.47;5029068;28;20064;-71
2022/04/01 05:31:33;;;;;;;6.63;3.13;;;;;;;8.55;53.91;100919.72;5029168;28;20120;-71
2022/04/01 05:34:08;;;;;;;;;;;;;;;8.46;52.26;100919.72;5029305;28;20116;-71
2022/04/01 05:36:34;;;;;;;4.60;2.37;;;;;;;7.80;53.93;100933.47;5029388;28;20283;-70
2022/04/01 05:39:00;;;;;;;3.97;2.43;;;;;;;8.08;53.08;100938.78;5028850;28;20116;-71
2022/04/01 05:41:27;;;;;;;2.87;2.00;;;;;;;7.66;54.32;100940.38;5028918;28;20057;-71
2022/04/01 05:43:53;;;;;;;3.33;1.83;;;;;;;7.89;54.17;100937.84;5028578;28;20029;-71
2022/04/01 05:46:22;;;;;;;5.33;2.30;;;;;;;7.03;56.03;100944.38;5027973;28;20032;-70
2022/04/01 05:48:49;;;;;;;3.40;1.90;;;;;;;7.70;53.27;100953.41;5029142;28;20044;-70
2022/04/01 05:51:15;;;;;;;3.50;2.33;;;;;;;8.96;49.88;100942.28;5030080;28;20079;-71
2022/04/01 05:53:45;;;;;;;3.03;2.17;;;;;;;7.62;53.74;100956.00;5027978;28;20026;-72
2022/04/01 05:56:12;;;;;;;6.37;2.67;;;;;;;7.59;53.79;100968.09;5029073;28;20033;-70
2022/04/01 05:58:39;;;;;;;6.23;1.50;;;;;;;7.23;54.89;100962.72;5027710;28;20021;-69
2022/04/01 06:01:26;;;;;;;6.20;2.00;;;;;;;8.44;51.73;100957.91;5028948;28;20037;-70
2022/04/01 06:04:06;;;;;;;4.00;2.30;;;;;;;8.00;52.21;100966.53;5028913;28;20022;-70
2022/04/01 06:06:40;;;;;;;6.83;2.70;;;;;;;8.96;50.17;100964.88;5027658;28;20038;-70
2022/04/01 06:09:43;;;;;;;3.73;2.10;;;;;;;7.77;52.39;100970.75;5031454;28;20022;-70
2022/04/01 06:12:32;;;;;;;2.90;1.90;;;;;;;8.73;50.70;100975.31;5026516;28;20026;-70
2022/04/01 06:15:13;;;;;;;4.67;1.83;;;;;;;7.73;52.19;100989.81;5032227;28;20041;-70
2022/04/01 06:17:55;;;;;;;4.53;2.07;;;;;;;7.77;53.23;100990.72;5032641;28;20029;-70
2022/04/01 06:20:24;;;;;;;10.23;2.20;;;;;;;7.96;52.54;100994.28;5031956;28;20132;-70
2022/04/01 06:23:05;;;;;;;4.43;2.10;;;;;;;7.58;52.52;100990.66;5015861;28;20405;-70
2022/04/01 06:25:38;;;;;;;8.37;1.90;;;;;;;9.20;49.48;100997.88;5066415;28;20568;-70
2022/04/01 06:28:24;;;;;;;3.13;1.83;;;;;;;8.66;48.79;100996.16;5032029;28;20033;-70
2022/04/01 06:30:50;;;;;;;3.93;2.00;;;;;;;7.92;50.54;101019.41;5019692;28;20027;-70
2022/04/01 06:33:47;;;;;;;4.47;1.77;;;;;;;7.87;51.47;101018.53;5033624;28;20026;-71
2022/04/01 06:36:17;;;;;;;4.60;2.17;;;;;;;8.29;50.00;101011.72;5033657;28;20029;-71
2022/04/01 06:39:00;;;;;;;3.10;1.83;;;;;;;7.33;53.84;101027.78;5032879;28;20032;-71
2022/04/01 06:41:35;;;;;;;2.73;1.90;;;;;;;8.84;48.57;101020.50;5032777;28;20079;-70
2022/04/01 06:44:01;;;;;;;4.73;1.90;;;;;;;8.95;47.12;101013.53;5033258;28;20021;-71
2022/04/01 06:46:27;;;;;;;6.70;2.37;;;;;;;8.28;48.09;101028.22;5030546;28;20021;-71
2022/04/01 06:48:52;;;;;;;2.67;1.90;;;;;;;8.44;48.83;101031.72;5030845;28;20440;-70
2022/04/01 06:51:18;;;;;;;4.77;2.27;;;;;;;8.80;48.17;101029.19;5029240;28;20025;-70
2022/04/01 06:53:43;;;;;;;5.60;1.90;;;;;;;-146.34;46.33;101029.19;5047266;28;20029;-70
2022/04/01 06:56:09;;;;;;;4.50;1.63;;;;;;;8.95;46.61;101037.00;5038875;28;20394;-70
2022/04/01 06:58:35;;;;;;;2.67;1.60;;;;;;;8.36;46.52;101048.19;5042794;28;20392;-70
2022/04/01 07:01:02;;;;;;;2.77;1.83;;;;;;;9.75;46.12;101042.97;5032917;28;20374;-70
2022/04/01 07:03:28;;;;;;;3.30;1.77;;;;;;;9.58;45.55;101043.03;5031230;28;20048;-70
2022/04/01 07:05:53;;;;;;;4.17;1.77;;;;;;;9.96;44.78;101052.47;5034081;28;20104;-70
2022/04/01 07:08:19;;;;;;;4.13;1.90;;;;;;;9.39;45.62;101057.84;5035154;28;20071;-70
2022/04/01 07:10:48;;;;;;;4.47;1.60;;;;;;;9.91;45.60;101059.47;5050588;28;20027;-70
2022/04/01 07:13:14;;;;;;;3.07;1.70;;;;;;;10.27;43.69;101057.56;5011604;28;20032;-70
2022/04/01 07:15:41;;;;;;;2.90;1.53;;;;;;;9.03;45.61;101050.06;5012465;28;20026;-70
2022/04/01 07:18:07;;;;;;;5.57;1.63;;;;;;;10.09;43.59;101059.38;5027679;28;20017;-70
2022/04/01 07:20:32;;;;;;;2.50;1.90;;;;;;;9.87;43.98;101058.59;5031518;28;20022;-71
2022/04/01 07:22:58;;;;;;;2.53;1.70;;;;;;;10.02;42.81;101055.91;5056003;28;20516;-71
2022/04/01 07:25:24;;;;;;;3.90;1.70;;;;;;;10.95;41.58;101050.19;5058341;28;20121;-70
2022/04/01 07:27:52;;;;;;;4.43;1.50;;;;;;;10.02;43.55;101063.75;5017311;28;20489;-71
2022/04/01 07:30:17;;;;;;;3.33;1.60;;;;;;;10.39;42.06;101070.59;5032492;28;20090;-71
2022/04/01 07:32:44;;;;;;;3.07;1.50;;;;;;;10.18;42.18;101075.00;5038723;28;20061;-71
2022/04/01 07:35:12;;;;;;;2.70;1.87;;;;;;;10.90;41.71;101069.41;5028971;28;20033;-70
2022/04/01 07:37:38;;;;;;;1.90;1.20;;;;;;;10.65;40.99;101075.66;5030858;28;20045;-70
2022/04/01 07:40:08;;;;;;;1.97;1.13;;;;;;;12.32;39.90;101060.97;5010906;28;20392;-70
2022/04/01 07:42:35;;;;;;;1.27;1.10;;;;;;;10.79;40.47;101061.63;5034322;28;20138;-70
2022/04/01 07:45:02;;;;;;;2.97;1.00;;;;;;;10.55;40.95;101065.25;5048647;28;20025;-71
2022/04/01 07:47:28;;;;;;;3.63;1.30;;;;;;;11.75;39.30;101063.38;5033591;28;20030;-71
2022/04/01 07:49:53;;;;;;;1.57;1.10;;;;;;;10.61;39.79;101073.94;5036591;28;20025;-70
2022/04/01 07:52:21;;;;;;;3.27;1.50;;;;;;;9.94;42.03;101075.97;5047431;28;20029;-70
2022/04/01 07:54:49;;;;;;;0.77;0.77;;;;;;;9.72;41.49;101085.59;5043036;28;20507;-70
2022/04/01 07:57:15;;;;;;;0.90;0.90;;;;;;;9.28;41.62;101082.19;5030454;28;20025;-70
2022/04/01 07:59:41;;;;;;;2.20;1.07;;;;;;;10.59;38.01;101080.94;5031301;28;20552;-70
2022/04/01 08:02:07;;;;;;;1.23;1.00;;;;;;;10.79;38.91;101077.31;5030619;28;20113;-71
2022/04/01 08:04:33;;;;;;;1.43;1.10;;;;;;;11.25;39.03;101076.97;5063756;28;20021;-71
2022/04/01 08:06:59;;;;;;;1.67;1.20;;;;;;;10.35;39.56;101089.78;5035213;28;20035;-71
2022/04/01 08:09:24;;;;;;;2.40;0.93;;;;;;;11.08;38.48;101094.53;5050174;28;20336;-71
2022/04/01 08:11:52;;;;;;;1.50;1.00;;;;;;;11.65;37.48;101089.66;5036356;28;20025;-71
2022/04/01 08:14:17;;;;;;;4.87;1.43;;;;;;;10.95;39.35;101105.09;5029271;28;20121;-71
2022/04/01 08:16:44;;;;;;;0.83;0.83;;;;;;;10.34;38.68;101109.81;5050217;28;20472;-71
2022/04/01 08:19:10;;;;;;;2.10;1.20;;;;;;;10.24;38.61;101108.06;5009562;28;20120;-71
2022/04/01 08:21:35;;;;;;;2.97;1.00;;;;;;;12.13;37.16;101104.00;5043245;28;20045;-71
2022/04/01 08:24:01;;;;;;;2.10;1.03;;;;;;;10.45;39.48;101119.34;5025177;28;20030;-70
2022/04/01 08:26:27;;;;;;;2.30;1.13;;;;;;;10.88;38.00;101108.66;5029403;28;20401;-71
2022/04/01 08:28:53;;;;;;;1.17;1.07;;;;;;;9.48;40.00;101112.63;5026302;28;20482;-70
2022/04/01 08:31:20;;;;;;;2.37;0.73;;;;;;;10.80;37.93;101121.75;5029280;28;20454;-70
2022/04/01 08:33:46;;;;;;;1.20;0.80;;;;;;;10.79;38.00;101132.22;5032411;28;20030;-70
2022/04/01 08:36:12;;;;;;;0.97;0.83;;;;;;;10.24;39.17;101134.19;5037211;28;20033;-70
2022/04/01 08:38:40;;;;;;;2.13;1.73;;;;;;;11.05;38.64;101126.81;5049553;28;20458;-70
2022/04/01 08:41:06;;;;;;;3.90;1.23;;;;;;;11.51;37.72;101146.50;5009987;28;20033;-70
2022/04/01 08:43:34;;;;;;;6.53;1.17;;;;;;;10.68;38.29;101130.53;5009991;28;20108;-71
2022/04/01 08:46:05;;;;;;;2.83;1.10;;;;;;;11.84;37.39;101129.63;5011322;28;20029;-71
2022/04/01 08:48:32;;;;;;;1.33;1.13;;;;;;;11.10;37.62;101137.25;5019684;28;20037;-69
2022/04/01 08:50:58;;;;;;;1.57;0.90;;;;;;;9.93;39.36;101151.69;5045449;28;20092;-70
2022/04/01 08:53:24;;;;;;;3.73;0.80;;;;;;;10.56;38.36;101156.72;5029368;28;20037;-71
2022/04/01 08:55:52;;;;;;;2.13;1.00;;;;;;;10.44;38.00;101175.97;5029105;28;20061;-70
2022/04/01 08:58:20;;;;;;;1.47;0.93;;;;;;;11.19;37.58;101160.72;5028729;28;20021;-70
2022/04/01 09:00:47;;;;;;;3.17;1.20;;;;;;;12.23;36.03;101165.91;5030681;28;20040;-70
2022/04/01 09:03:14;;;;;;;2.90;0.80;;;;;;;10.51;38.61;101166.38;5025601;28;20121;-70
2022/04/01 09:05:51;;;;;;;1.90;0.90;;;;;;;12.14;36.17;101168.63;5025372;28;20062;-71
2022/04/01 09:08:25;;;;;;;3.13;1.63;;;;;;;11.47;36.73;101165.72;5026568;28;20034;-70
2022/04/01 09:10:57;;;;;;;1.27;0.70;;;;;;;12.53;35.60;101174.28;5028532;28;20038;-71
2022/04/01 09:13:24;;;;;;;1.42;1.00;;;;;;;12.83;34.37;101167.75;5027993;28;20026;-71
2022/04/01 09:15:50;;;;;;;1.13;0.80;;;;;;;12.01;34.80;101174.00;5028869;28;20021;-71
2022/04/01 09:18:42;;;;;;;1.43;0.87;;;;;;;12.70;33.81;101159.19;5030180;28;20032;-72
2022/04/01 09:21:10;;;;;;;1.60;0.80;;;;;;;13.61;33.38;101175.31;5056005;28;20025;-72
2022/04/01 09:23:36;;;;;;;1.00;0.73;;;;;;;12.85;33.51;101196.59;5028695;28;20036;-71
2022/04/01 09:26:02;;;;;;;1.17;0.73;;;;;;;13.56;33.05;101177.19;5029237;28;20022;-72
2022/04/01 09:28:27;;;;;;;4.30;1.13;;;;;;;12.11;36.12;101189.63;5029007;28;20040;-72
2022/04/01 09:31:10;;;;;;;4.30;0.90;;;;;;;12.70;35.47;101180.16;5028307;28;20059;-72
2022/04/01 09:33:47;;;;;;;1.55;0.98;;;;;;;11.87;36.11;101197.69;5030297;28;20045;-71
2022/04/01 09:36:18;;;;;;;1.43;0.87;;;;;;;12.90;36.12;101200.88;5028618;28;20041;-71
2022/04/01 09:39:03;;;;;;;3.20;1.17;;;;;;;12.00;35.65;101193.22;5055405;28;20026;-72
2022/04/01 09:41:31;;;;;;;2.20;1.10;;;;;;;12.01;36.76;101200.19;5028926;28;20029;-72
2022/04/01 09:44:08;;;;;;;3.13;1.40;;;;;;;13.01;35.63;101206.00;5027485;28;20033;-72
2022/04/01 09:46:39;;;;;;;1.13;0.90;;;;;;;12.64;35.36;101211.72;5009640;28;20396;-72
2022/04/01 09:49:04;;;;;;;2.53;1.10;;;;;;;12.87;34.30;101213.16;5009348;28;20473;-73
2022/04/01 09:51:32;;;;;;;6.33;1.40;;;;;;;14.18;33.36;101208.47;5030241;28;20060;-72
2022/04/01 09:54:02;;;;;;;2.43;0.87;;;;;;;13.38;34.50;101213.34;5028492;28;20500;-71
2022/04/01 09:56:41;;;;;;;1.60;1.30;;;;;;;14.40;32.80;101219.44;5025370;28;20039;-72
2022/04/01 09:59:08;;;;;;;1.40;1.00;;;;;;;13.79;33.84;101218.78;5016900;28;20030;-72
2022/04/01 10:01:34;;;;;;;2.30;1.00;;;;;;;13.74;33.69;101213.63;5023307;28;20040;-72
2022/04/01 10:04:01;;;;;;;1.40;1.07;;;;;;;14.26;32.61;101221.47;5060344;28;20090;-72
2022/04/01 10:06:28;;;;;;;1.87;0.80;;;;;;;13.37;33.48;101214.22;5027579;28;20033;-72
2022/04/01 10:08:56;;;;;;;1.83;0.90;;;;;;;12.34;36.05;101223.44;5027143;28;20377;-72
2022/04/01 10:11:23;;;;;;;1.17;0.87;;;;;;;12.15;35.38;101234.13;5002629;28;20048;-72
2022/04/01 10:13:50;;;;;;;3.40;1.27;;;;;;;12.37;34.52;101232.13;5027917;28;20030;-71
2022/04/01 10:16:17;;;;;;;2.13;1.00;;;;;;;14.53;32.55;101234.97;5022040;28;20026;-72
2022/04/01 10:18:47;;;;;;;2.00;1.07;;;;;;;13.60;34.54;101231.41;5010803;28;20397;-72
2022/04/01 10:21:17;;;;;;;1.13;1.00;;;;;;;14.00;33.55;101245.59;5025709;28;20060;-72
2022/04/01 10:23:48;;;;;;;0.60;0.60;;;;;;;12.79;34.93;101236.00;5010770;28;20036;-72
2022/04/01 10:26:18;;;;;;;1.10;1.00;;;;;;;13.71;33.54;101241.69;5012616;28;20079;-71
2022/04/01 10:28:47;;;;;;;1.60;0.67;;;;;;;13.43;33.14;101233.41;5015445;28;20033;-72
2022/04/01 10:31:14;;;;;;;2.07;1.00;;;;;;;15.01;31.44;101236.63;5019403;28;20088;-72
2022/04/01 10:33:40;;;;;;;2.27;1.17;;;;;;;13.45;34.42;101242.13;5022382;28;20056;-73
2022/04/01 10:36:21;;;;;;;5.67;2.07;;;;;;;13.51;34.68;101257.78;5021145;28;20025;-73
2022/04/01 10:38:59;;;;;;;1.50;1.10;;;;;;;12.37;35.76;101255.72;5015583;28;20030;-73
2022/04/01 10:41:24;;;;;;;2.83;1.30;;;;;;;13.18;34.67;101252.13;5021782;28;20496;-74
2022/04/01 10:43:55;;;;;;;2.93;1.13;;;;;;;12.37;35.45;101258.34;5019289;28;20032;-73
2022/04/01 10:46:21;;;;;;;1.87;1.07;;;;;;;12.45;34.91;101242.53;5004035;28;20060;-74
2022/04/01 10:52:11;;;;;;;1.37;1.07;;;;;;;15.06;32.79;101246.16;5030423;28;20048;-74
2022/04/01 10:54:42;;;;;;;1.17;0.90;;;;;;;14.81;32.05;101258.09;5030290;28;20034;-73
2022/04/01 10:57:10;;;;;;;5.23;1.37;;;;;;;13.84;33.25;101252.88;5041288;28;20029;-73
2022/04/01 10:59:44;;;;;;;1.20;1.10;;;;;;;15.09;32.01;101261.03;5021064;28;20468;-73
2022/04/01 11:02:13;;;;;;;1.57;1.10;;;;;;;15.06;32.40;101261.94;5055316;28;20040;-73
2022/04/01 11:04:44;;;;;;;3.67;1.50;;;;;;;13.17;34.63;101271.38;5004900;28;20076;-73
2022/04/01 11:07:22;;;;;;;3.23;1.30;;;;;;;12.98;34.52;101262.88;5020613;28;20030;-74
2022/04/01 11:09:49;;;;;;;2.03;1.23;;;;;;;13.11;34.40;101264.47;5029071;28;20547;-72
2022/04/01 11:12:14;;;;;;;4.37;1.20;;;;;;;13.18;34.74;101270.50;5030485;28;20072;-73
2022/04/01 11:17:21;;;;;;;2.93;0.90;;;;;;;12.58;35.85;101269.47;5032512;28;20477;-73
2022/04/01 11:20:01;;;;;;;2.37;1.20;;;;;;;14.59;33.01;101262.03;5028837;28;20033;-73
2022/04/01 11:22:53;;;;;;;1.53;1.20;;;;;;;13.60;35.22;101268.16;5034328;28;20508;-73
2022/04/01 11:25:24;;;;;;;1.10;1.00;;;;;;;13.13;34.52;101269.69;5028320;28;20052;-73
2022/04/01 11:28:02;;;;;;;3.20;1.30;;;;;;;13.20;34.92;101281.81;5016477;28;20026;-73
2022/04/01 11:30:28;;;;;;;2.50;1.53;;;;;;;14.00;33.36;101272.75;5055847;28;20495;-73
2022/04/01 11:32:57;;;;;;;1.73;1.27;;;;;;;14.47;33.07;101271.94;5022286;28;20440;-74
2022/04/01 11:35:24;;;;;;;3.37;1.47;;;;;;;15.34;31.43;101266.59;5025130;28;20580;-74
2022/04/01 11:37:50;;;;;;;2.00;1.37;;;;;;;13.21;35.40;101286.19;5028207;28;20043;-74
2022/04/01 11:40:25;;;;;;;3.90;1.27;;;;;;;12.89;35.32;101285.72;5030016;28;20536;-73
2022/04/01 11:43:05;;;;;;;3.50;1.63;;;;;;;12.95;35.62;101295.28;5027072;28;20026;-73
2022/04/01 11:45:40;;;;;;;2.57;1.00;;;;;;;14.13;33.88;101283.06;5015471;28;20041;-73
2022/04/01 11:48:21;;;;;;;1.77;0.97;;;;;;;13.29;32.79;101284.31;5028642;28;20037;-74
2022/04/01 11:50:50;;;;;;;2.93;1.47;;;;;;;13.20;33.42;101295.84;5020181;28;20029;-73